Startpagina
METAR-TAF:

METAR-TAF

Vliegvelden :

Sofia, Bulgarije

Luchthaven Sofia

breedte: 42-39N, lengte: 023-23E, hoogte: 586 m

Actueel weer

Dit bericht is 20 minuten geleden gemaakt, om 15:00 UTC
Wind 14 kt uit het westen
Temperatuur 14°C
Vochtigheid 67%
Druk 1018 hPa
Zicht 10 km of meer
Weinig wolken op 2600 ft
Gebroken wolken op 3500 ft

METAR: LBSF 221500Z 27014KT 9999 FEW026 BKN035 14/08 Q1018 NOSIG

Tijdstip: 18:20 (15:20 UTC)

Verwachting

Dit bericht is 4 uur en het 20 minuten geleden gemaakt, om 11:00 UTC
Verwachting geldig van 22 om 12 UTC tot 23 om 12 UTC
Wind 16 kt uit het westnoordwesten met uitschieters tot 26 kt
Zicht 10 km of meer
Gebroken wolken op 2500 ft
Geheel bewolkt op 5000 ft
Wijzigt naar
van 22 om 20 UTC tot 22 om 22 UTC
Wind 10 kt uit het westen
Verspreide wolken op 4000 ft
Verspreide wolken op 6000 ft

TAF: LBSF 221100Z 2212/2312 30016G26KT 9999 BKN025 OVC050 BECMG 2220/2222 27010KT SCT040 SCT060

Waarnemingen en weersverwachtingen van meer dan 4000 vliegvelden (METAR en TAF).

De beschikbare stations zijn de gele en rode punten op de kaart.

Ga met uw muis naar het station om de naam te zien.

Klik dan om waarnemingen en weersverwachtingen te zien.

kaart wijzigen: klik op de groene knoppen met een zwart kruis om in te zoomen, op de groene knop met een streepje om uit te zoomen of op de groene pijlen voor aangrenzende kaarten.


METAR-TAF: